Time;durP1;ratioP1;P1;durP2;ratioP2;P2;SDS_P1;SDS_P2;PMS_P1;PMS_P2;Temp;Humidity;BMP_temperature;BMP_pressure;BME280_temperature;BME280_humidity;BME280_pressure;Samples;Min_cycle;Max_cycle;Signal;HPM_P1;HPM_P2
2021/08/01 01:14:06;;;;;;;8.77;6.83;;;;;;;17.78;100.00;99937.61;1785674;79;23184;-62
2021/08/01 01:16:41;;;;;;;10.07;7.30;;;;;;;18.83;100.00;99937.34;1764153;79;21542;-62
2021/08/01 01:19:10;;;;;;;9.10;7.60;;;;;;;19.06;100.00;99941.59;1756526;80;22358;-62
2021/08/01 01:22:01;;;;;;;8.47;6.47;;;;;;;19.21;100.00;99937.01;1769530;80;20987;-63
2021/08/01 01:24:30;;;;;;;10.78;7.37;;;;;;;19.29;100.00;99938.41;1761258;80;20908;-62
2021/08/01 01:27:15;;;;;;;10.13;7.63;;;;;;;19.31;100.00;99932.34;1781179;80;20920;-62
2021/08/01 01:29:56;;;;;;;9.77;7.30;;;;;;;19.38;100.00;99932.94;1770751;80;20846;-62
2021/08/01 01:32:45;;;;;;;12.70;7.63;;;;;;;19.51;100.00;99935.70;1766521;80;22067;-62
2021/08/01 01:35:15;;;;;;;13.23;9.43;;;;;;;19.57;100.00;99948.73;1776986;80;20900;-63
2021/08/01 01:37:52;;;;;;;10.87;8.50;;;;;;;19.48;100.00;99953.41;1754173;80;20927;-61
2021/08/01 01:40:38;;;;;;;13.90;8.13;;;;;;;19.49;100.00;99951.83;1757098;80;20993;-62
2021/08/01 01:43:24;;;;;;;12.50;11.17;;;;;;;19.58;100.00;99953.48;1773608;80;21007;-62
2021/08/01 01:45:52;;;;;;;52.30;47.20;;;;;;;19.74;100.00;99955.81;1768311;80;21144;-61
2021/08/01 01:48:19;;;;;;;33.53;29.90;;;;;;;19.60;100.00;99960.14;1758818;80;21059;-62
2021/08/01 01:50:46;;;;;;;20.40;18.23;;;;;;;19.64;100.00;99965.23;1754615;80;20889;-61
2021/08/01 01:53:15;;;;;;;13.77;12.37;;;;;;;19.55;100.00;99966.70;1753269;80;20978;-62
2021/08/01 01:55:42;;;;;;;16.00;14.30;;;;;;;19.54;100.00;99962.44;1766616;80;21616;-62
2021/08/01 01:58:11;;;;;;;15.90;13.13;;;;;;;19.38;100.00;99960.17;1759034;80;22116;-62
2021/08/01 02:00:39;;;;;;;14.73;11.67;;;;;;;19.20;100.00;99964.45;1726336;81;21015;-62
2021/08/01 02:03:06;;;;;;;12.30;10.47;;;;;;;19.11;100.00;99967.27;1734751;81;20892;-60
2021/08/01 02:05:50;;;;;;;12.80;9.33;;;;;;;19.17;100.00;99964.97;1695458;83;21472;-62
2021/08/01 02:08:56;;;;;;;33.23;28.97;;;;;;;19.23;100.00;99967.13;1647919;86;21217;-62
2021/08/01 02:11:58;;;;;;;21.27;18.33;;;;;;;19.36;100.00;99974.70;1685570;83;21811;-63
2021/08/01 02:14:31;;;;;;;15.87;13.70;;;;;;;19.28;100.00;99978.58;1714898;82;21089;-62
2021/08/01 02:17:07;;;;;;;16.55;14.75;;;;;;;19.38;100.00;99972.06;1718188;82;24750;-62
2021/08/01 02:19:35;;;;;;;18.43;13.77;;;;;;;19.42;100.00;99967.88;1720221;82;20956;-63
2021/08/01 02:22:03;;;;;;;13.67;12.27;;;;;;;19.35;100.00;99966.47;1690312;82;21296;-61
2021/08/01 02:24:30;;;;;;;14.07;11.57;;;;;;;19.39;100.00;99966.25;1712109;82;21135;-63
2021/08/01 02:26:57;;;;;;;13.57;10.13;;;;;;;19.48;100.00;99970.06;1700548;82;20970;-62
2021/08/01 02:29:24;;;;;;;16.30;10.17;;;;;;;19.54;100.00;99974.34;1700888;82;21053;-63
2021/08/01 02:31:52;;;;;;;10.17;9.07;;;;;;;19.61;100.00;99977.59;1720337;82;20986;-60
2021/08/01 02:34:22;;;;;;;11.10;8.27;;;;;;;19.58;100.00;99982.58;1701035;82;21106;-62
2021/08/01 02:36:51;;;;;;;10.93;9.20;;;;;;;19.73;100.00;99984.61;1700329;82;21830;-62
2021/08/01 02:39:19;;;;;;;9.50;7.80;;;;;;;19.79;100.00;99989.70;1700879;82;21038;-63
2021/08/01 02:41:46;;;;;;;13.37;9.43;;;;;;;19.85;100.00;99980.78;1722474;82;20990;-63
2021/08/01 02:44:26;;;;;;;11.63;8.80;;;;;;;19.88;100.00;99982.89;1722483;82;21004;-63
2021/08/01 02:46:53;;;;;;;11.87;8.33;;;;;;;20.06;100.00;99988.88;1715851;82;20963;-63
2021/08/01 02:49:23;;;;;;;11.30;9.27;;;;;;;20.11;100.00;99993.67;1710026;82;21071;-63
2021/08/01 02:51:53;;;;;;;21.62;14.30;;;;;;;20.16;100.00;99992.41;1715808;82;20899;-62
2021/08/01 02:54:21;;;;;;;22.30;18.50;;;;;;;20.37;100.00;99997.85;1716031;82;21012;-61
2021/08/01 02:56:48;;;;;;;26.43;20.27;;;;;;;20.50;100.00;99996.66;1714244;82;21152;-63
2021/08/01 02:59:15;;;;;;;25.23;18.97;;;;;;;20.58;100.00;99998.30;1727516;82;21020;-63
2021/08/01 03:01:42;;;;;;;25.90;21.63;;;;;;;20.68;100.00;99996.23;1633044;82;65072;-74
2021/08/01 03:04:14;;;;;;;72.23;48.00;;;;;;;20.70;100.00;100002.61;1607146;87;21091;-74
2021/08/01 03:06:41;;;;;;;42.33;34.13;;;;;;;20.93;100.00;99995.58;1606894;87;21068;-75
2021/08/01 03:09:09;;;;;;;19.73;16.27;;;;;;;21.08;100.00;100000.95;1607205;87;21087;-76
2021/08/01 03:11:36;;;;;;;14.50;10.87;;;;;;;21.34;100.00;100002.41;1582380;87;21008;-75
2021/08/01 03:14:04;;;;;;;14.57;11.00;;;;;;;21.87;100.00;99991.12;1607683;87;21651;-76
2021/08/01 03:16:32;;;;;;;11.63;9.30;;;;;;;22.68;100.00;99996.13;1607875;87;20962;-75
2021/08/01 03:19:01;;;;;;;14.07;12.63;;;;;;;23.73;100.00;99987.22;1584243;89;21548;-75
2021/08/01 03:21:29;;;;;;;19.53;14.27;;;;;;;24.90;100.00;99980.05;1607304;87;21140;-75
2021/08/01 03:24:14;;;;;;;18.13;12.97;;;;;;;25.92;100.00;99967.46;1607984;87;21576;-72
2021/08/01 03:26:44;;;;;;;11.57;9.30;;;;;;;26.99;100.00;99962.59;1608652;87;21178;-75
2021/08/01 03:29:10;;;;;;;11.70;8.27;;;;;;;27.80;100.00;99968.84;1608139;87;21022;-76
2021/08/01 03:31:37;;;;;;;10.85;9.10;;;;;;;28.32;100.00;99971.03;1607458;87;20988;-74
2021/08/01 03:34:03;;;;;;;10.05;9.05;;;;;;;28.77;100.00;99970.37;1607427;87;21047;-74
2021/08/01 03:36:33;;;;;;;11.20;9.03;;;;;;;29.29;100.00;99963.78;1606826;87;20941;-77
2021/08/01 03:39:03;;;;;;;11.33;9.00;;;;;;;29.96;100.00;99971.09;1607761;87;21219;-76
2021/08/01 03:41:38;;;;;;;9.30;8.13;;;;;;;30.66;100.00;99967.08;1607368;87;21626;-72
2021/08/01 03:44:06;;;;;;;10.60;8.68;;;;;;;31.35;100.00;99963.77;1582075;89;21557;-73
2021/08/01 03:46:33;;;;;;;12.05;8.63;;;;;;;31.89;99.45;99968.59;1606978;87;21007;-76
2021/08/01 03:49:00;;;;;;;12.58;9.25;;;;;;;32.50;88.91;99971.18;1607346;87;21123;-76
2021/08/01 03:51:27;;;;;;;10.98;9.80;;;;;;;33.17;79.48;99978.67;1607550;87;21098;-76
2021/08/01 03:53:53;;;;;;;12.58;9.88;;;;;;;33.77;71.20;99974.77;1606845;87;20957;-76
2021/08/01 03:56:20;;;;;;;14.35;9.88;;;;;;;34.39;63.54;99977.31;1606276;87;21389;-76
2021/08/01 03:58:47;;;;;;;10.32;9.23;;;;;;;35.00;58.23;99971.19;1607443;87;21489;-76
2021/08/01 04:01:14;;;;;;;10.58;8.70;;;;;;;35.41;53.69;99972.42;1619682;87;21025;-76
2021/08/01 04:03:41;;;;;;;11.60;8.20;;;;;;;35.78;50.55;99976.05;1630478;86;21139;-75
2021/08/01 04:06:07;;;;;;;9.40;7.80;;;;;;;36.16;48.40;99978.48;1638900;86;21176;-70
2021/08/01 04:08:34;;;;;;;12.25;8.73;;;;;;;36.46;46.28;99982.65;1634720;86;21086;-74
2021/08/01 04:11:04;;;;;;;10.40;8.15;;;;;;;36.81;44.17;99985.13;1633713;86;21816;-75
2021/08/01 04:13:33;;;;;;;10.82;8.20;;;;;;;37.15;42.93;99983.85;1636671;86;21038;-75
2021/08/01 04:16:00;;;;;;;9.45;8.38;;;;;;;37.56;41.14;99988.83;1639150;87;22236;-75
2021/08/01 04:18:29;;;;;;;12.03;8.28;;;;;;;37.95;39.95;99989.83;1637769;86;21037;-75
2021/08/01 04:20:56;;;;;;;11.15;7.87;;;;;;;38.45;38.93;99990.25;1633302;86;21126;-76
2021/08/01 04:23:23;;;;;;;10.55;8.93;;;;;;;38.78;37.95;99990.67;1635404;86;21774;-73
2021/08/01 04:25:50;;;;;;;11.30;8.48;;;;;;;39.04;37.09;99992.39;1636424;86;20964;-70
2021/08/01 04:28:17;;;;;;;9.53;8.13;;;;;;;39.12;36.12;99990.48;1635542;86;22058;-74
2021/08/01 04:30:43;;;;;;;14.50;9.43;;;;;;;39.31;35.63;99987.46;1633846;86;21503;-76
2021/08/01 04:33:09;;;;;;;10.13;8.98;;;;;;;39.61;34.71;99987.74;1636932;86;21151;-77
2021/08/01 04:35:36;;;;;;;10.88;9.15;;;;;;;39.73;34.45;99981.16;1636156;86;20967;-76
2021/08/01 04:38:03;;;;;;;14.75;13.05;;;;;;;39.65;34.15;99988.52;1637975;86;20895;-76
2021/08/01 04:40:30;;;;;;;16.25;12.93;;;;;;;39.36;34.29;99991.20;1636227;86;21153;-75
2021/08/01 04:43:01;;;;;;;15.32;13.20;;;;;;;38.94;34.62;99995.84;1637905;86;21013;-75
2021/08/01 04:45:28;;;;;;;13.83;12.07;;;;;;;38.36;35.24;99997.39;1638183;86;20977;-76
2021/08/01 04:47:56;;;;;;;12.23;10.18;;;;;;;37.97;36.16;100001.91;1634541;86;20950;-73
2021/08/01 04:50:22;;;;;;;10.53;8.40;;;;;;;37.47;36.77;100004.09;1638590;86;21615;-74
2021/08/01 04:52:51;;;;;;;10.43;7.70;;;;;;;36.70;38.30;99996.41;1635845;86;21870;-74
2021/08/01 04:55:19;;;;;;;12.60;8.23;;;;;;;36.13;40.53;99997.62;1639886;86;20918;-73
2021/08/01 04:57:46;;;;;;;15.10;7.50;;;;;;;35.87;41.39;99990.73;1637018;86;20946;-74
2021/08/01 05:00:14;;;;;;;12.78;8.53;;;;;;;35.42;42.92;99990.82;1639165;86;21093;-73
2021/08/01 05:02:40;;;;;;;12.33;8.95;;;;;;;34.77;44.46;99994.06;1618314;86;21576;-75
2021/08/01 05:05:08;;;;;;;12.03;8.83;;;;;;;34.14;47.90;99999.71;1611830;87;21231;-76
2021/08/01 05:07:34;;;;;;;11.80;8.93;;;;;;;33.81;50.79;100001.89;1614372;87;20900;-75
2021/08/01 05:10:01;;;;;;;9.13;7.53;;;;;;;33.91;54.08;99994.64;1612793;87;21505;-75
2021/08/01 05:12:28;;;;;;;11.20;8.80;;;;;;;34.57;53.00;99993.23;1612128;87;21034;-74
2021/08/01 05:14:56;;;;;;;12.63;8.43;;;;;;;35.49;49.47;99989.06;1611981;87;21460;-75
2021/08/01 05:17:23;;;;;;;9.65;8.15;;;;;;;36.49;45.47;99984.09;1611857;87;21191;-74
2021/08/01 05:19:51;;;;;;;12.78;8.95;;;;;;;37.48;42.43;99983.89;1613411;87;21100;-74
2021/08/01 05:22:18;;;;;;;12.07;9.05;;;;;;;38.21;40.53;99983.44;1612337;87;21624;-74
2021/08/01 05:24:44;;;;;;;12.65;9.35;;;;;;;38.72;38.59;99981.31;1611483;87;21011;-70
2021/08/01 05:27:11;;;;;;;10.58;8.28;;;;;;;39.25;37.00;99974.02;1612378;87;21526;-77
2021/08/01 05:29:38;;;;;;;9.80;8.78;;;;;;;39.60;35.85;99976.05;1612634;87;21202;-75
2021/08/01 05:32:05;;;;;;;11.70;8.70;;;;;;;40.08;35.04;99978.48;1612504;87;20904;-77
2021/08/01 05:34:32;;;;;;;13.80;9.98;;;;;;;40.35;34.60;99976.14;1616681;87;20971;-78
2021/08/01 05:36:59;;;;;;;11.38;10.25;;;;;;;40.76;33.46;99974.31;1610703;87;21159;-75
2021/08/01 05:39:26;;;;;;;15.48;9.75;;;;;;;41.28;33.06;99974.52;1611666;87;21530;-75
2021/08/01 05:41:52;;;;;;;9.68;8.78;;;;;;;41.40;32.31;99974.66;1612661;87;21532;-72
2021/08/01 05:44:19;;;;;;;9.90;8.13;;;;;;;41.53;32.03;99978.53;1607314;87;20912;-71
2021/08/01 05:46:45;;;;;;;11.00;7.80;;;;;;;41.37;31.04;99984.24;1578763;90;21137;-77
2021/08/01 05:49:12;;;;;;;9.50;7.37;;;;;;;41.44;31.84;99977.40;1607559;88;21469;-73
2021/08/01 05:51:39;;;;;;;8.20;7.30;;;;;;;41.71;30.27;99979.78;1611518;88;21164;-70
2021/08/01 05:54:05;;;;;;;7.67;6.90;;;;;;;42.17;29.29;99982.77;1613684;87;21157;-71
2021/08/01 05:56:32;;;;;;;7.08;6.45;;;;;;;42.64;28.95;99979.00;1612754;87;20967;-72
2021/08/01 05:58:59;;;;;;;8.05;7.35;;;;;;;43.04;27.48;99968.39;1613831;87;21475;-70
2021/08/01 06:01:26;;;;;;;8.55;7.60;;;;;;;42.89;28.05;99959.56;1615238;86;21468;-74
2021/08/01 06:03:53;;;;;;;7.45;6.20;;;;;;;42.89;28.05;99959.56;1639289;85;21549;-72
2021/08/01 06:06:22;;;;;;;7.70;5.80;;;;;;;42.74;27.94;99970.52;1640894;85;21156;-73
2021/08/01 06:08:51;;;;;;;9.18;6.80;;;;;;;42.42;27.55;99971.59;1639293;85;21029;-71
2021/08/01 06:11:19;;;;;;;8.75;7.85;;;;;;;41.94;28.58;99975.71;1639229;85;21120;-69
2021/08/01 06:13:47;;;;;;;7.45;6.78;;;;;;;41.18;29.73;99976.75;1639733;86;21413;-71
2021/08/01 06:16:14;;;;;;;7.72;7.00;;;;;;;40.25;31.87;99981.02;1606344;88;21118;-71
2021/08/01 06:18:42;;;;;;;8.53;6.83;;;;;;;39.93;32.48;99976.11;1651166;85;21156;-72
2021/08/01 06:21:16;;;;;;;7.47;5.80;;;;;;;39.72;32.49;99980.39;1638862;87;21090;-71
2021/08/01 06:23:46;;;;;;;5.53;5.03;;;;;;;39.78;32.40;99974.75;1643691;84;21452;-73
2021/08/01 06:26:12;;;;;;;6.78;4.92;;;;;;;39.87;31.75;99971.64;1607444;87;21007;-72
2021/08/01 06:28:40;;;;;;;6.03;5.12;;;;;;;40.18;31.35;99976.16;1639058;86;21069;-71
2021/08/01 06:31:07;;;;;;;6.28;5.45;;;;;;;40.40;31.24;99972.23;1639665;87;21493;-70
2021/08/01 06:33:34;;;;;;;6.92;6.12;;;;;;;40.48;30.68;99968.31;1638197;87;20875;-69
2021/08/01 06:36:10;;;;;;;9.88;6.17;;;;;;;40.62;29.97;99963.44;1607668;87;21095;-71
2021/08/01 06:38:37;;;;;;;5.60;5.10;;;;;;;40.60;29.71;99963.05;1639244;85;21016;-71
2021/08/01 06:41:04;;;;;;;9.63;8.63;;;;;;;40.55;29.09;99956.59;1639562;85;21397;-71
2021/08/01 06:43:31;;;;;;;7.40;6.05;;;;;;;40.55;29.94;99953.86;1638694;87;22108;-70
2021/08/01 06:45:58;;;;;;;6.70;6.12;;;;;;;40.52;29.76;99953.28;1642791;85;22107;-72
2021/08/01 06:48:25;;;;;;;6.20;5.30;;;;;;;40.26;29.32;99951.17;1639076;85;21054;-70
2021/08/01 06:50:51;;;;;;;7.10;5.72;;;;;;;40.04;29.44;99950.96;1643149;85;20962;-70
2021/08/01 06:53:18;;;;;;;8.45;6.62;;;;;;;39.95;30.62;99946.48;1643795;85;21578;-71
2021/08/01 06:55:45;;;;;;;5.62;5.00;;;;;;;40.35;30.02;99947.47;1643775;85;21698;-70
2021/08/01 06:58:11;;;;;;;6.53;5.25;;;;;;;40.46;28.17;99938.45;1645282;85;21530;-73
2021/08/01 07:00:38;;;;;;;5.33;4.83;;;;;;;40.21;29.15;99938.52;1607878;89;21088;-73
2021/08/01 07:03:05;;;;;;;6.70;5.12;;;;;;;40.31;29.34;99942.59;1637444;86;21065;-70
2021/08/01 07:05:31;;;;;;;5.42;4.65;;;;;;;40.44;28.54;99939.45;1636351;86;21002;-68
2021/08/01 07:07:58;;;;;;;5.00;4.50;;;;;;;40.28;29.01;99931.68;1637743;85;21698;-72
2021/08/01 07:10:25;;;;;;;5.30;4.80;;;;;;;40.34;28.78;99936.33;1638750;85;21032;-70
2021/08/01 07:12:52;;;;;;;4.80;4.33;;;;;;;40.24;29.00;99938.52;1637938;86;21592;-76
2021/08/01 07:15:24;;;;;;;5.08;4.22;;;;;;;40.20;28.30;99924.67;1636357;85;21554;-70
2021/08/01 07:17:55;;;;;;;5.92;4.22;;;;;;;39.90;28.86;99925.83;1634316;86;22513;-71
2021/08/01 07:20:22;;;;;;;6.60;4.65;;;;;;;39.66;29.46;99928.69;1638904;86;22552;-71
2021/08/01 07:22:49;;;;;;;4.47;4.08;;;;;;;39.93;29.21;99931.87;1638856;86;21019;-70
2021/08/01 07:25:16;;;;;;;4.85;4.12;;;;;;;40.05;28.57;99930.11;1641268;86;21033;-70
2021/08/01 07:27:43;;;;;;;4.70;4.10;;;;;;;40.09;27.77;99931.48;1641396;85;21043;-71
2021/08/01 07:30:11;;;;;;;5.47;3.85;;;;;;;40.05;28.16;99933.43;1602390;88;21029;-71
2021/08/01 07:32:38;;;;;;;4.30;3.65;;;;;;;40.07;27.63;99931.08;1645769;85;21091;-71
2021/08/01 07:35:06;;;;;;;6.42;3.85;;;;;;;40.10;28.29;99928.93;1643739;86;21071;-71
2021/08/01 07:37:32;;;;;;;4.40;4.00;;;;;;;40.52;27.68;99930.06;1601351;88;21110;-69
2021/08/01 07:39:59;;;;;;;5.17;3.58;;;;;;;40.76;27.03;99922.38;1643760;86;21499;-71
2021/08/01 07:42:26;;;;;;;4.08;3.58;;;;;;;40.85;27.31;99921.98;1635516;86;21125;-70
2021/08/01 07:44:55;;;;;;;4.17;3.77;;;;;;;40.96;27.11;99924.67;1646224;86;21833;-72
2021/08/01 07:47:23;;;;;;;4.87;4.08;;;;;;;41.29;26.68;99923.33;1640991;86;20926;-71
2021/08/01 07:49:51;;;;;;;5.10;4.70;;;;;;;41.99;25.97;99921.91;1635505;86;21033;-70
2021/08/01 07:52:19;;;;;;;4.78;4.28;;;;;;;42.20;25.29;99925.02;1643339;85;21120;-71
2021/08/01 07:54:46;;;;;;;3.98;3.62;;;;;;;41.92;25.66;99930.17;1638369;86;21105;-72
2021/08/01 07:57:25;;;;;;;5.05;4.58;;;;;;;41.98;25.22;99930.71;1637023;86;21111;-72
2021/08/01 07:59:53;;;;;;;5.17;3.90;;;;;;;42.02;24.77;99927.95;1634080;86;21511;-71
2021/08/01 08:02:19;;;;;;;6.47;5.03;;;;;;;41.73;25.21;99924.03;1645930;86;21474;-71
2021/08/01 08:04:46;;;;;;;5.28;3.83;;;;;;;41.44;25.87;99922.69;1647239;85;21022;-73
2021/08/01 08:07:13;;;;;;;4.28;3.80;;;;;;;41.55;25.97;99923.39;1634184;86;21662;-73
2021/08/01 08:09:40;;;;;;;4.92;4.10;;;;;;;41.71;25.16;99922.88;1644129;86;21154;-73
2021/08/01 08:12:07;;;;;;;4.28;3.80;;;;;;;41.74;26.12;99926.95;1601927;88;21465;-73
2021/08/01 08:14:34;;;;;;;4.60;3.55;;;;;;;41.70;25.46;99922.10;1634341;86;21171;-72
2021/08/01 08:17:01;;;;;;;5.35;4.22;;;;;;;41.69;25.87;99923.29;1635201;86;21480;-71
2021/08/01 08:19:28;;;;;;;5.55;3.98;;;;;;;41.96;24.91;99924.08;1635725;86;21045;-72
2021/08/01 08:21:56;;;;;;;4.70;4.30;;;;;;;41.76;24.82;99923.23;1638686;86;21149;-70
2021/08/01 08:24:24;;;;;;;4.87;3.90;;;;;;;41.38;25.13;99924.27;1636939;85;20962;-71
2021/08/01 08:26:51;;;;;;;6.50;3.80;;;;;;;41.07;25.36;99916.63;1635338;86;21064;-72
2021/08/01 08:29:18;;;;;;;7.15;4.20;;;;;;;41.14;26.46;99924.59;1638719;86;21106;-70
2021/08/01 08:31:50;;;;;;;4.58;4.15;;;;;;;41.25;25.98;99923.35;1633888;86;21006;-72
2021/08/01 08:34:14;;;;;;;9.90;4.12;;;;;;;41.06;25.31;99931.46;1636148;86;21697;-72
2021/08/01 08:36:40;;;;;;;6.90;3.58;;;;;;;40.38;26.57;99930.27;1634454;86;20954;-71
2021/08/01 08:39:07;;;;;;;4.72;3.67;;;;;;;40.05;26.27;99941.63;1636614;86;20954;-72
2021/08/01 08:41:36;;;;;;;4.95;3.55;;;;;;;40.04;26.14;99931.85;1634352;86;21006;-72
2021/08/01 08:44:03;;;;;;;7.47;3.98;;;;;;;40.00;26.81;99927.76;1635117;86;21021;-74
2021/08/01 08:46:29;;;;;;;4.20;3.58;;;;;;;40.56;26.44;99925.39;1645802;86;21674;-73
2021/08/01 08:48:56;;;;;;;4.12;3.70;;;;;;;41.20;26.30;99921.05;1634048;86;21530;-72
2021/08/01 08:51:25;;;;;;;4.55;3.98;;;;;;;41.94;25.63;99916.84;1635997;86;21141;-72
2021/08/01 08:53:54;;;;;;;5.22;3.80;;;;;;;42.71;24.58;99917.28;1634426;86;21436;-73
2021/08/01 08:56:21;;;;;;;5.22;3.47;;;;;;;43.34;23.88;99907.83;1637206;85;21353;-72
2021/08/01 08:58:52;;;;;;;5.37;4.00;;;;;;;43.67;23.15;99906.17;1638669;85;21643;-72
2021/08/01 09:01:19;;;;;;;3.87;3.47;;;;;;;43.92;22.75;99906.55;1635612;86;21101;-72
2021/08/01 09:03:49;;;;;;;4.00;3.60;;;;;;;43.90;22.27;99908.16;1638418;86;21029;-71
2021/08/01 09:06:17;;;;;;;4.45;3.87;;;;;;;43.59;22.14;99902.77;1636091;87;21967;-71
2021/08/01 09:08:44;;;;;;;4.53;3.40;;;;;;;42.87;22.73;99913.17;1634514;87;21091;-71
2021/08/01 09:11:10;;;;;;;5.50;3.60;;;;;;;42.34;23.37;99912.58;1639713;86;21537;-71
2021/08/01 09:13:49;;;;;;;4.70;3.67;;;;;;;42.09;23.50;99907.34;1639666;87;20938;-70
2021/08/01 09:16:21;;;;;;;6.12;3.35;;;;;;;41.72;23.93;99903.33;1639777;87;21575;-72
2021/08/01 09:18:50;;;;;;;5.55;3.80;;;;;;;41.51;23.86;99900.75;1638768;87;20988;-72
2021/08/01 09:21:34;;;;;;;3.90;3.33;;;;;;;41.23;24.35;99903.84;1639893;87;21598;-70
2021/08/01 09:24:02;;;;;;;5.60;3.60;;;;;;;40.84;24.61;99908.10;1639105;87;21197;-69
2021/08/01 09:26:44;;;;;;;4.17;3.70;;;;;;;40.58;25.03;99904.70;1639460;87;21110;-72
2021/08/01 09:29:11;;;;;;;4.22;3.83;;;;;;;40.81;24.86;99899.35;1639289;87;21031;-69
2021/08/01 09:31:38;;;;;;;4.87;3.80;;;;;;;41.32;25.11;99903.39;1639855;87;20986;-70
2021/08/01 09:34:28;;;;;;;5.20;3.33;;;;;;;41.77;24.19;99904.26;1638092;87;21616;-70
2021/08/01 09:37:03;;;;;;;4.67;3.17;;;;;;;41.96;24.21;99901.58;1632915;87;21168;-71
2021/08/01 09:39:41;;;;;;;5.22;3.58;;;;;;;41.87;23.94;99899.14;1633118;87;21159;-72
2021/08/01 09:42:09;;;;;;;4.12;3.33;;;;;;;41.48;24.90;99894.70;1635335;87;21540;-73
2021/08/01 09:44:39;;;;;;;5.47;4.28;;;;;;;41.57;24.85;99888.20;1633129;87;21060;-72
2021/08/01 09:47:06;;;;;;;7.97;3.90;;;;;;;41.66;24.47;99883.04;1639813;87;21180;-71
2021/08/01 09:49:33;;;;;;;6.35;4.12;;;;;;;41.44;24.53;99883.02;1640528;87;21147;-69
2021/08/01 09:52:02;;;;;;;4.60;4.10;;;;;;;41.14;24.81;99888.45;1634611;87;21483;-68
2021/08/01 09:54:47;;;;;;;5.70;4.17;;;;;;;40.36;25.42;99885.42;1637085;87;21660;-70
2021/08/01 09:57:21;;;;;;;4.53;4.12;;;;;;;39.70;25.96;99881.76;1638283;87;21392;-71
2021/08/01 09:59:48;;;;;;;4.60;3.67;;;;;;;39.36;26.84;99884.84;1633676;87;21075;-70
2021/08/01 10:02:15;;;;;;;5.70;5.00;;;;;;;39.19;27.31;99882.81;1632233;86;21158;-70
2021/08/01 10:04:41;;;;;;;5.35;4.47;;;;;;;39.04;27.46;99878.50;1639657;84;21542;-69
2021/08/01 10:07:14;;;;;;;4.87;4.10;;;;;;;38.99;28.21;99878.88;1637925;86;21515;-70
2021/08/01 10:09:44;;;;;;;5.42;4.33;;;;;;;39.48;28.05;99878.82;1635374;87;21107;-70
2021/08/01 10:12:12;;;;;;;4.65;4.25;;;;;;;40.23;26.77;99870.03;1635563;86;21081;-69
2021/08/01 10:14:39;;;;;;;5.83;4.33;;;;;;;40.72;25.73;99873.80;1637721;86;21152;-69
2021/08/01 10:17:06;;;;;;;4.42;4.03;;;;;;;40.93;25.16;99866.69;1637762;85;22210;-71
2021/08/01 10:19:33;;;;;;;4.92;4.47;;;;;;;40.95;25.26;99874.66;1601269;88;21553;-72
2021/08/01 10:22:03;;;;;;;4.40;3.85;;;;;;;40.95;25.01;99878.77;1603054;88;21220;-70
2021/08/01 10:24:39;;;;;;;5.95;4.17;;;;;;;41.02;25.09;99880.13;1639353;86;20989;-70
2021/08/01 10:27:07;;;;;;;5.45;4.15;;;;;;;41.13;25.07;99875.97;1637990;86;21300;-71
2021/08/01 10:29:46;;;;;;;5.87;4.63;;;;;;;40.99;25.33;99876.84;1635618;86;21101;-70
2021/08/01 10:32:14;;;;;;;5.45;4.17;;;;;;;40.61;25.02;99875.80;1638097;86;21034;-70
2021/08/01 10:34:49;;;;;;;4.20;3.80;;;;;;;40.11;26.15;99869.05;1638070;86;21113;-69
2021/08/01 10:37:26;;;;;;;5.10;3.95;;;;;;;40.02;26.28;99872.79;1639366;86;22368;-71
2021/08/01 10:39:53;;;;;;;6.03;4.78;;;;;;;40.04;26.12;99875.89;1637808;86;21197;-72
2021/08/01 10:42:23;;;;;;;6.35;4.50;;;;;;;40.05;26.39;99870.05;1634029;86;21503;-70
2021/08/01 10:44:50;;;;;;;7.00;6.35;;;;;;;39.95;26.57;99878.25;1634130;86;21084;-69
2021/08/01 10:47:17;;;;;;;5.15;4.65;;;;;;;40.16;26.09;99876.09;1635748;86;21634;-71
2021/08/01 10:49:45;;;;;;;5.83;4.65;;;;;;;40.15;26.54;99874.55;1632583;85;21072;-70
2021/08/01 10:52:14;;;;;;;6.70;4.70;;;;;;;40.16;26.45;99872.80;1641316;85;21109;-70
2021/08/01 10:54:59;;;;;;;4.62;4.22;;;;;;;40.24;26.08;99875.70;1600515;89;21080;-70
2021/08/01 10:57:27;;;;;;;4.78;3.83;;;;;;;40.53;25.54;99864.67;1639013;85;21298;-70
2021/08/01 10:59:58;;;;;;;4.80;4.33;;;;;;;40.93;25.23;99859.86;1635728;86;21124;-71
2021/08/01 11:02:28;;;;;;;5.12;4.62;;;;;;;40.93;24.75;99862.00;1636289;86;21160;-70
2021/08/01 11:04:55;;;;;;;5.62;4.00;;;;;;;40.75;24.72;99857.20;1636227;86;21799;-69
2021/08/01 11:07:33;;;;;;;4.90;4.40;;;;;;;40.69;25.20;99856.86;1602020;89;21096;-70
2021/08/01 11:10:13;;;;;;;5.53;4.10;;;;;;;40.76;24.90;99852.70;1634937;86;21006;-71
2021/08/01 11:12:41;;;;;;;5.17;4.67;;;;;;;40.88;25.53;99855.59;1635878;86;21516;-70
2021/08/01 11:15:11;;;;;;;11.03;4.65;;;;;;;40.89;25.96;99859.09;1638018;85;21512;-71
2021/08/01 11:17:48;;;;;;;4.85;4.35;;;;;;;40.78;25.03;99854.45;1635350;85;21165;-71
2021/08/01 11:20:26;;;;;;;5.87;4.40;;;;;;;40.92;25.11;99849.52;1636997;85;21030;-70
2021/08/01 11:22:54;;;;;;;6.05;4.45;;;;;;;41.07;25.50;99852.97;1636570;86;21395;-72
2021/08/01 11:25:27;;;;;;;4.90;4.20;;;;;;;41.30;25.45;99857.30;1633376;87;21014;-71
2021/08/01 11:28:28;;;;;;;5.10;4.60;;;;;;;41.56;24.17;99855.16;1635486;86;21495;-71
2021/08/01 11:31:01;;;;;;;5.15;4.28;;;;;;;41.95;23.66;99842.53;1633401;86;21440;-71
2021/08/01 11:33:34;;;;;;;8.78;5.00;;;;;;;42.50;23.18;99851.13;1635917;86;21578;-70
2021/08/01 11:36:23;;;;;;;5.92;4.78;;;;;;;42.75;23.20;99847.33;1638590;86;21066;-69
2021/08/01 11:38:55;;;;;;;4.53;4.10;;;;;;;42.62;23.34;99846.29;1636618;86;21075;-70
2021/08/01 11:41:35;;;;;;;6.87;4.42;;;;;;;42.38;23.79;99848.16;1635494;86;21038;-70
2021/08/01 11:44:14;;;;;;;5.35;3.70;;;;;;;42.32;23.54;99842.94;1637328;86;21628;-71
2021/08/01 11:47:03;;;;;;;6.47;4.10;;;;;;;42.44;23.60;99841.05;1635984;86;21001;-71
2021/08/01 11:49:48;;;;;;;9.08;5.22;;;;;;;42.60;23.95;99840.45;1638617;85;20972;-71
2021/08/01 11:52:42;;;;;;;6.72;5.30;;;;;;;42.39;23.93;99838.75;1638378;86;21480;-70
2021/08/01 11:55:05;;;;;;;7.20;4.50;;;;;;;41.85;24.28;99838.53;1634416;86;21084;-70
2021/08/01 11:57:31;;;;;;;5.95;4.67;;;;;;;41.51;24.75;99831.75;1586856;89;21139;-70
2021/08/01 11:59:58;;;;;;;4.97;4.50;;;;;;;41.49;23.94;99826.52;1601826;89;21594;-68
2021/08/01 12:02:25;;;;;;;4.65;4.25;;;;;;;41.56;23.90;99834.64;1634937;86;20973;-69
2021/08/01 12:04:58;;;;;;;6.78;4.45;;;;;;;41.23;24.99;99830.00;1640412;86;21066;-68
2021/08/01 12:07:39;;;;;;;5.00;4.47;;;;;;;40.98;25.04;99825.25;1637566;86;21086;-70
2021/08/01 12:10:19;;;;;;;5.30;4.67;;;;;;;40.48;25.38;99814.56;1635963;86;21142;-71
2021/08/01 12:12:45;;;;;;;4.92;4.42;;;;;;;39.81;26.17;99819.77;1634381;86;21465;-70
2021/08/01 12:15:13;;;;;;;5.47;4.97;;;;;;;39.29;26.48;99823.48;1639323;85;21579;-68
2021/08/01 12:17:39;;;;;;;5.37;4.87;;;;;;;38.82;26.86;99821.78;1637070;86;21517;-70
2021/08/01 12:20:07;;;;;;;6.60;5.22;;;;;;;38.53;27.75;99821.67;1635296;86;21481;-68
2021/08/01 12:22:34;;;;;;;6.03;5.37;;;;;;;38.52;27.97;99820.09;1636705;86;21478;-69
2021/08/01 12:25:02;;;;;;;5.42;4.60;;;;;;;38.45;28.60;99822.22;1636377;86;21001;-70
2021/08/01 12:27:34;;;;;;;5.35;4.85;;;;;;;38.39;27.94;99811.48;1639407;86;21537;-69
2021/08/01 12:30:09;;;;;;;5.72;5.22;;;;;;;38.33;28.26;99811.61;1641038;86;21132;-69
2021/08/01 12:32:42;;;;;;;6.80;4.90;;;;;;;38.50;27.66;99812.13;1638130;86;21024;-68
2021/08/01 12:35:12;;;;;;;6.62;4.87;;;;;;;38.79;27.78;99811.06;1634564;86;21182;-68
2021/08/01 12:38:02;;;;;;;5.40;4.90;;;;;;;38.88;27.26;99806.05;1638739;85;21874;-68
2021/08/01 12:40:38;;;;;;;5.37;4.87;;;;;;;38.63;26.89;99811.37;1632092;86;21041;-70
2021/08/01 12:43:15;;;;;;;5.95;4.62;;;;;;;38.42;26.62;99808.59;1637995;86;21051;-69
2021/08/01 12:45:47;;;;;;;5.60;5.10;;;;;;;38.54;27.75;99810.19;1633568;86;21025;-69
2021/08/01 12:48:23;;;;;;;6.80;5.22;;;;;;;38.62;27.08;99814.50;1639850;86;21245;-70
2021/08/01 12:50:53;;;;;;;6.42;5.00;;;;;;;38.43;27.33;99816.37;1639678;86;22353;-69
2021/08/01 12:53:21;;;;;;;5.67;5.17;;;;;;;38.22;28.23;99810.77;1641094;85;21141;-70